Terminal Aerodrome Forecast
Issued by NWS

Home | Current Version | Previous Version | Text Only | Print | Product List | Glossary On
Versions: 1 2 3 4 5 6 7 8 9 10 11 12 13 14 15 16 17 18 19 20 21 22 23 24 25 26
000
FTUS46 KMFR 211345 AAA
TAFOTH
TAF AMD
KOTH 211345Z 2114/2212 20008KT 6SM RA BR BKN025 OVC040
     FM211500 24015G25KT 3SM RA BR OVC015
     FM212100 32008KT P6SM -SHRA SCT020 BKN040
     FM220100 VRB04KT P6SM SCT025 BKN060=

USA.gov is the U.S. government's official web portal to all federal, state and local government web resources and services.